Chandlerville, Illinois
Current Conditions -  °F | °C
As of 4:55 PM on Thursday 20 Nov 2014 (Local Time) from KIJX Reporting Station
Clear Clear  
Wind Chill: 24°   Ceiling: Unl
Heat Index: 29°   Visibility: 10mi
Dew Point: 12°   Wind: 5mph
Humidity: 49%   Direction: 260°W
Pressure: 30.22"   Gusts: NA
Location:  40.05°N, 90.16°W
Report Text: KIJX 202255Z AUTO 26004KT 10SM CLR M02/M11 A3022 RMK AO2 T10171111
Loading
Personal Weather Stations






























Interactive Weather Map New forecast layout! Learn more

10-Day Weather Forecast

Advertisements
Track Severe Weather on mobile